sensor_id;sensor_type;location;lat;lon;timestamp;pressure;altitude;pressure_sealevel;temperature;humidity
62600;BME280;48671;48.922;2.346;2024-02-04T00:02:30;102894.03;;;13.06;64.97
62600;BME280;48671;48.922;2.346;2024-02-04T00:04:55;102929.56;;;13.24;64.71
62600;BME280;48671;48.922;2.346;2024-02-04T00:07:21;102918.38;;;13.10;64.42
62600;BME280;48671;48.922;2.346;2024-02-04T00:09:46;102927.81;;;13.25;64.55
62600;BME280;48671;48.922;2.346;2024-02-04T00:12:12;102948.72;;;13.25;64.42
62600;BME280;48671;48.922;2.346;2024-02-04T00:14:37;102910.59;;;13.08;63.70
62600;BME280;48671;48.922;2.346;2024-02-04T00:17:02;102930.38;;;13.23;64.57
62600;BME280;48671;48.922;2.346;2024-02-04T00:19:31;102917.34;;;13.22;64.05
62600;BME280;48671;48.922;2.346;2024-02-04T00:21:57;102886.28;;;13.02;64.41
62600;BME280;48671;48.922;2.346;2024-02-04T00:24:22;102945.09;;;13.35;64.13
62600;BME280;48671;48.922;2.346;2024-02-04T00:26:50;102933.75;;;13.34;63.99
62600;BME280;48671;48.922;2.346;2024-02-04T00:29:24;102918.19;;;13.24;63.96
62600;BME280;48671;48.922;2.346;2024-02-04T00:31:52;102908.66;;;13.21;63.92
62600;BME280;48671;48.922;2.346;2024-02-04T00:34:18;102875.75;;;13.06;64.13
62600;BME280;48671;48.922;2.346;2024-02-04T00:36:43;102878.41;;;13.05;63.98
62600;BME280;48671;48.922;2.346;2024-02-04T00:39:12;102877.47;;;13.09;63.85
62600;BME280;48671;48.922;2.346;2024-02-04T00:42:00;102915.56;;;13.24;63.99
62600;BME280;48671;48.922;2.346;2024-02-04T00:44:28;102925.09;;;13.31;63.69
62600;BME280;48671;48.922;2.346;2024-02-04T00:46:58;102891.38;;;13.09;64.01
62600;BME280;48671;48.922;2.346;2024-02-04T00:49:23;102877.63;;;12.97;64.01
62600;BME280;48671;48.922;2.346;2024-02-04T00:51:49;102856.88;;;12.86;64.04
62600;BME280;48671;48.922;2.346;2024-02-04T00:54:17;102894.97;;;13.02;63.67
62600;BME280;48671;48.922;2.346;2024-02-04T00:56:45;102922.59;;;13.22;63.93
62600;BME280;48671;48.922;2.346;2024-02-04T00:59:11;102931.31;;;13.19;63.83
62600;BME280;48671;48.922;2.346;2024-02-04T01:01:37;102903.56;;;13.10;63.66
62600;BME280;48671;48.922;2.346;2024-02-04T01:04:03;102888.16;;;12.92;63.92
62600;BME280;48671;48.922;2.346;2024-02-04T01:06:28;102872.53;;;12.89;63.90
62600;BME280;48671;48.922;2.346;2024-02-04T01:08:58;102893.25;;;13.00;63.82
62600;BME280;48671;48.922;2.346;2024-02-04T01:11:23;102881.97;;;12.99;63.74
62600;BME280;48671;48.922;2.346;2024-02-04T01:13:49;102894.09;;;13.03;63.50
62600;BME280;48671;48.922;2.346;2024-02-04T01:16:14;102914.84;;;13.14;63.64
62600;BME280;48671;48.922;2.346;2024-02-04T01:18:40;102907.88;;;13.15;63.73
62600;BME280;48671;48.922;2.346;2024-02-04T01:21:05;102899.16;;;13.14;63.41
62600;BME280;48671;48.922;2.346;2024-02-04T01:23:33;102913.88;;;13.24;63.66
62600;BME280;48671;48.922;2.346;2024-02-04T01:25:59;102893.19;;;13.06;63.54
62600;BME280;48671;48.922;2.346;2024-02-04T01:28:24;102926.94;;;13.24;63.65
62600;BME280;48671;48.922;2.346;2024-02-04T01:30:53;102889.72;;;13.05;63.90
62600;BME280;48671;48.922;2.346;2024-02-04T01:33:18;102881.88;;;13.04;63.99
62600;BME280;48671;48.922;2.346;2024-02-04T01:35:46;102877.50;;;13.04;63.99
62600;BME280;48671;48.922;2.346;2024-02-04T01:38:15;102868.94;;;12.96;64.33
62600;BME280;48671;48.922;2.346;2024-02-04T01:40:40;102847.16;;;12.96;64.03
62600;BME280;48671;48.922;2.346;2024-02-04T01:43:09;102874.91;;;13.04;64.25
62600;BME280;48671;48.922;2.346;2024-02-04T01:45:34;102866.25;;;13.01;64.31
62600;BME280;48671;48.922;2.346;2024-02-04T01:47:59;102882.66;;;13.10;64.42
62600;BME280;48671;48.922;2.346;2024-02-04T01:50:28;102887.78;;;13.18;64.50
62600;BME280;48671;48.922;2.346;2024-02-04T01:52:53;102822.13;;;12.82;64.71
62600;BME280;48671;48.922;2.346;2024-02-04T01:55:19;102869.59;;;13.10;64.69
62600;BME280;48671;48.922;2.346;2024-02-04T01:57:44;102816.06;;;12.77;64.65
62600;BME280;48671;48.922;2.346;2024-02-04T02:00:10;102863.53;;;13.08;64.77
62600;BME280;48671;48.922;2.346;2024-02-04T02:02:42;102846.16;;;13.06;65.05
62600;BME280;48671;48.922;2.346;2024-02-04T02:05:11;102872.09;;;13.17;64.90
62600;BME280;48671;48.922;2.346;2024-02-04T02:07:40;102827.09;;;12.98;64.95
62600;BME280;48671;48.922;2.346;2024-02-04T02:10:06;102835.78;;;13.00;65.02
62600;BME280;48671;48.922;2.346;2024-02-04T02:12:39;102822.75;;;12.98;64.87
62600;BME280;48671;48.922;2.346;2024-02-04T02:15:36;102865.09;;;13.20;64.78
62600;BME280;48671;48.922;2.346;2024-02-04T02:18:21;102853.81;;;13.17;64.94
62600;BME280;48671;48.922;2.346;2024-02-04T02:26:57;102785.44;;;12.87;64.84
62600;BME280;48671;48.922;2.346;2024-02-04T02:29:25;102841.72;;;13.09;64.83
62600;BME280;48671;48.922;2.346;2024-02-04T02:31:56;102810.59;;;12.94;64.88
62600;BME280;48671;48.922;2.346;2024-02-04T02:34:22;102838.31;;;13.06;64.99
62600;BME280;48671;48.922;2.346;2024-02-04T02:37:27;102811.53;;;12.90;64.89
62600;BME280;48671;48.922;2.346;2024-02-04T02:40:14;102821.91;;;12.96;64.79
62600;BME280;48671;48.922;2.346;2024-02-04T02:42:43;102816.75;;;12.92;65.16
62600;BME280;48671;48.922;2.346;2024-02-04T02:45:20;102798.66;;;12.78;65.27
62600;BME280;48671;48.922;2.346;2024-02-04T02:47:47;102793.41;;;12.79;65.29
62600;BME280;48671;48.922;2.346;2024-02-04T02:50:13;102799.41;;;12.86;65.74
62600;BME280;48671;48.922;2.346;2024-02-04T02:52:39;102849.53;;;13.12;65.25
62600;BME280;48671;48.922;2.346;2024-02-04T02:55:14;102824.38;;;13.05;65.26
62600;BME280;48671;48.922;2.346;2024-02-04T02:57:40;102808.91;;;12.92;65.51
62600;BME280;48671;48.922;2.346;2024-02-04T03:00:06;102819.25;;;12.99;65.49
62600;BME280;48671;48.922;2.346;2024-02-04T03:02:32;102840.88;;;13.07;65.71
62600;BME280;48671;48.922;2.346;2024-02-04T03:05:04;102840.88;;;13.07;65.98
62600;BME280;48671;48.922;2.346;2024-02-04T03:07:29;102825.41;;;12.94;65.96
62600;BME280;48671;48.922;2.346;2024-02-04T03:09:54;102793.47;;;12.75;66.21
62600;BME280;48671;48.922;2.346;2024-02-04T03:12:20;102788.41;;;12.65;66.19
62600;BME280;48671;48.922;2.346;2024-02-04T03:14:45;102847.13;;;12.97;66.33
62600;BME280;48671;48.922;2.346;2024-02-04T03:17:11;102806.53;;;12.75;66.74
62600;BME280;48671;48.922;2.346;2024-02-04T03:19:37;102773.63;;;12.63;66.65
62600;BME280;48671;48.922;2.346;2024-02-04T03:22:02;102792.72;;;12.65;66.49
62600;BME280;48671;48.922;2.346;2024-02-04T03:24:28;102792.72;;;12.67;67.02
62600;BME280;48671;48.922;2.346;2024-02-04T03:26:56;102788.44;;;12.62;66.85
62600;BME280;48671;48.922;2.346;2024-02-04T03:29:22;102823.00;;;12.78;67.29
62600;BME280;48671;48.922;2.346;2024-02-04T03:31:50;102843.81;;;12.86;67.52
62600;BME280;48671;48.922;2.346;2024-02-04T03:34:23;102848.97;;;12.91;67.45
62600;BME280;48671;48.922;2.346;2024-02-04T03:36:54;102830.00;;;12.79;67.95
62600;BME280;48671;48.922;2.346;2024-02-04T03:39:23;102833.50;;;12.77;67.58
62600;BME280;48671;48.922;2.346;2024-02-04T03:41:48;102825.75;;;12.72;67.79
62600;BME280;48671;48.922;2.346;2024-02-04T03:44:14;102834.28;;;12.83;67.61
62600;BME280;48671;48.922;2.346;2024-02-04T03:46:39;102817.00;;;12.73;67.77
62600;BME280;48671;48.922;2.346;2024-02-04T03:49:06;102806.59;;;12.69;67.66
62600;BME280;48671;48.922;2.346;2024-02-04T03:51:32;102819.63;;;12.73;67.89
62600;BME280;48671;48.922;2.346;2024-02-04T03:53:58;102820.53;;;12.71;67.36
62600;BME280;48671;48.922;2.346;2024-02-04T03:56:23;102816.16;;;12.73;67.71
62600;BME280;48671;48.922;2.346;2024-02-04T03:58:48;102805.88;;;12.60;67.39
62600;BME280;48671;48.922;2.346;2024-02-04T04:01:18;102848.16;;;12.87;67.92
62600;BME280;48671;48.922;2.346;2024-02-04T04:03:47;102812.81;;;12.61;68.15
62600;BME280;48671;48.922;2.346;2024-02-04T04:06:12;102836.97;;;12.79;68.12
62600;BME280;48671;48.922;2.346;2024-02-04T04:08:38;102830.09;;;12.70;67.82
62600;BME280;48671;48.922;2.346;2024-02-04T04:11:04;102856.84;;;12.89;68.13
62600;BME280;48671;48.922;2.346;2024-02-04T04:13:29;102856.84;;;12.89;67.84
62600;BME280;48671;48.922;2.346;2024-02-04T04:15:55;102830.94;;;12.75;68.75
62600;BME280;48671;48.922;2.346;2024-02-04T04:18:20;102840.41;;;12.82;68.15
62600;BME280;48671;48.922;2.346;2024-02-04T04:20:45;102835.19;;;12.81;68.50
62600;BME280;48671;48.922;2.346;2024-02-04T04:23:12;102833.47;;;12.78;68.50
62600;BME280;48671;48.922;2.346;2024-02-04T04:25:37;102842.22;;;12.76;68.53
62600;BME280;48671;48.922;2.346;2024-02-04T04:28:03;102831.78;;;12.74;69.00
62600;BME280;48671;48.922;2.346;2024-02-04T04:30:28;102850.81;;;12.84;68.72
62600;BME280;48671;48.922;2.346;2024-02-04T04:32:53;102853.41;;;12.85;68.57
62600;BME280;48671;48.922;2.346;2024-02-04T04:35:19;102817.13;;;12.65;68.54
62600;BME280;48671;48.922;2.346;2024-02-04T04:37:44;102847.41;;;12.79;68.62
62600;BME280;48671;48.922;2.346;2024-02-04T04:40:10;102830.94;;;12.74;68.99
62600;BME280;48671;48.922;2.346;2024-02-04T04:42:35;102815.34;;;12.68;69.09
62600;BME280;48671;48.922;2.346;2024-02-04T04:45:00;102858.66;;;12.85;69.05
62600;BME280;48671;48.922;2.346;2024-02-04T04:47:26;102852.59;;;12.82;69.35
62600;BME280;48671;48.922;2.346;2024-02-04T04:49:51;102852.63;;;12.79;69.31
62600;BME280;48671;48.922;2.346;2024-02-04T04:52:17;102846.59;;;12.74;69.47
62600;BME280;48671;48.922;2.346;2024-02-04T04:54:42;102851.81;;;12.74;69.32
62600;BME280;48671;48.922;2.346;2024-02-04T04:57:08;102830.16;;;12.67;69.23
62600;BME280;48671;48.922;2.346;2024-02-04T04:59:37;102851.72;;;12.83;69.08
62600;BME280;48671;48.922;2.346;2024-02-04T05:02:03;102846.53;;;12.78;69.36
62600;BME280;48671;48.922;2.346;2024-02-04T05:04:29;102861.28;;;12.82;69.37
62600;BME280;48671;48.922;2.346;2024-02-04T05:06:54;102856.13;;;12.79;69.30
62600;BME280;48671;48.922;2.346;2024-02-04T05:09:20;102849.13;;;12.78;69.42
62600;BME280;48671;48.922;2.346;2024-02-04T05:11:45;102822.41;;;12.61;69.40
62600;BME280;48671;48.922;2.346;2024-02-04T05:14:11;102838.88;;;12.66;69.19
62600;BME280;48671;48.922;2.346;2024-02-04T05:16:36;102872.59;;;12.81;69.86
62600;BME280;48671;48.922;2.346;2024-02-04T05:19:02;102856.97;;;12.80;69.36
62600;BME280;48671;48.922;2.346;2024-02-04T05:21:28;102829.34;;;12.63;69.05
62600;BME280;48671;48.922;2.346;2024-02-04T05:23:53;102853.53;;;12.75;69.62
62600;BME280;48671;48.922;2.346;2024-02-04T05:26:18;102857.00;;;12.77;69.31
62600;BME280;48671;48.922;2.346;2024-02-04T05:28:47;102864.78;;;12.81;69.16
62600;BME280;48671;48.922;2.346;2024-02-04T05:31:15;102853.53;;;12.75;69.34
62600;BME280;48671;48.922;2.346;2024-02-04T05:33:40;102865.75;;;12.74;69.80
62600;BME280;48671;48.922;2.346;2024-02-04T05:36:06;102836.34;;;12.60;69.37
62600;BME280;48671;48.922;2.346;2024-02-04T05:38:31;102828.63;;;12.51;69.68
62600;BME280;48671;48.922;2.346;2024-02-04T05:40:57;102858.81;;;12.72;69.50
62600;BME280;48671;48.922;2.346;2024-02-04T05:43:22;102838.13;;;12.55;69.97
62600;BME280;48671;48.922;2.346;2024-02-04T05:45:47;102843.31;;;12.59;69.63
62600;BME280;48671;48.922;2.346;2024-02-04T05:48:16;102827.78;;;12.49;69.89
62600;BME280;48671;48.922;2.346;2024-02-04T05:50:41;102850.31;;;12.59;69.94
62600;BME280;48671;48.922;2.346;2024-02-04T05:53:07;102852.00;;;12.58;69.65
62600;BME280;48671;48.922;2.346;2024-02-04T05:55:32;102801.81;;;12.39;69.73
62600;BME280;48671;48.922;2.346;2024-02-04T05:57:57;102828.59;;;12.54;70.01
62600;BME280;48671;48.922;2.346;2024-02-04T06:00:26;102853.56;;;12.73;69.65
62600;BME280;48671;48.922;2.346;2024-02-04T06:02:51;102852.72;;;12.73;69.55
62600;BME280;48671;48.922;2.346;2024-02-04T06:05:17;102852.81;;;12.65;69.82
62600;BME280;48671;48.922;2.346;2024-02-04T06:07:42;102823.50;;;12.43;69.81
62600;BME280;48671;48.922;2.346;2024-02-04T06:10:11;102843.31;;;12.58;70.02
62600;BME280;48671;48.922;2.346;2024-02-04T06:12:37;102820.88;;;12.45;69.90
62600;BME280;48671;48.922;2.346;2024-02-04T06:15:04;102820.03;;;12.43;70.03
62600;BME280;48671;48.922;2.346;2024-02-04T06:17:29;102842.47;;;12.59;69.85
62600;BME280;48671;48.922;2.346;2024-02-04T06:19:55;102865.00;;;12.66;70.09
62600;BME280;48671;48.922;2.346;2024-02-04T06:22:22;102826.09;;;12.45;69.86
62600;BME280;48671;48.922;2.346;2024-02-04T06:24:54;102827.78;;;12.50;70.11
62600;BME280;48671;48.922;2.346;2024-02-04T06:27:20;102834.72;;;12.53;69.74
62600;BME280;48671;48.922;2.346;2024-02-04T06:29:45;102833.03;;;12.47;69.65
62600;BME280;48671;48.922;2.346;2024-02-04T06:32:10;102839.94;;;12.53;70.34
62600;BME280;48671;48.922;2.346;2024-02-04T06:34:36;102828.78;;;12.38;70.05
62600;BME280;48671;48.922;2.346;2024-02-04T06:37:08;102826.94;;;12.47;69.64
62600;BME280;48671;48.922;2.346;2024-02-04T06:39:33;102838.22;;;12.49;69.80
62600;BME280;48671;48.922;2.346;2024-02-04T06:41:58;102861.56;;;12.61;69.61
62600;BME280;48671;48.922;2.346;2024-02-04T06:44:24;102819.19;;;12.39;69.63
62600;BME280;48671;48.922;2.346;2024-02-04T06:46:49;102815.75;;;12.37;69.14
62600;BME280;48671;48.922;2.346;2024-02-04T06:49:14;102840.72;;;12.58;69.03
62600;BME280;48671;48.922;2.346;2024-02-04T06:51:43;102845.00;;;12.63;69.04
62600;BME280;48671;48.922;2.346;2024-02-04T06:54:09;102874.41;;;12.78;68.85
62600;BME280;48671;48.922;2.346;2024-02-04T06:56:35;102832.91;;;12.55;68.78
62600;BME280;48671;48.922;2.346;2024-02-04T06:59:02;102866.69;;;12.69;69.20
62600;BME280;48671;48.922;2.346;2024-02-04T07:01:30;102836.38;;;12.57;69.26
62600;BME280;48671;48.922;2.346;2024-02-04T07:03:55;102831.19;;;12.54;68.88
62600;BME280;48671;48.922;2.346;2024-02-04T07:06:21;102834.72;;;12.53;68.99
62600;BME280;48671;48.922;2.346;2024-02-04T07:08:46;102855.41;;;12.67;69.36
62600;BME280;48671;48.922;2.346;2024-02-04T07:11:11;102845.97;;;12.56;68.86
62600;BME280;48671;48.922;2.346;2024-02-04T07:13:37;102856.38;;;12.58;69.23
62600;BME280;48671;48.922;2.346;2024-02-04T07:16:02;102855.53;;;12.57;68.96
62600;BME280;48671;48.922;2.346;2024-02-04T07:18:27;102820.16;;;12.33;69.07
62600;BME280;48671;48.922;2.346;2024-02-04T07:20:53;102849.44;;;12.57;69.13
62600;BME280;48671;48.922;2.346;2024-02-04T07:23:24;102843.47;;;12.47;68.89
62600;BME280;48671;48.922;2.346;2024-02-04T07:25:49;102867.59;;;12.64;69.06
62600;BME280;48671;48.922;2.346;2024-02-04T07:28:14;102833.91;;;12.45;69.19
62600;BME280;48671;48.922;2.346;2024-02-04T07:30:40;102863.41;;;12.56;68.95
62600;BME280;48671;48.922;2.346;2024-02-04T07:33:05;102855.72;;;12.42;69.77
62600;BME280;48671;48.922;2.346;2024-02-04T07:35:33;102853.09;;;12.44;69.20
62600;BME280;48671;48.922;2.346;2024-02-04T07:37:58;102827.94;;;12.35;69.09
62600;BME280;48671;48.922;2.346;2024-02-04T07:40:24;102849.59;;;12.45;69.17
62600;BME280;48671;48.922;2.346;2024-02-04T07:42:49;102856.56;;;12.44;68.99
62600;BME280;48671;48.922;2.346;2024-02-04T07:45:18;102846.09;;;12.46;69.22
62600;BME280;48671;48.922;2.346;2024-02-04T07:47:43;102845.19;;;12.48;68.85
62600;BME280;48671;48.922;2.346;2024-02-04T07:50:09;102830.44;;;12.44;69.13
62600;BME280;48671;48.922;2.346;2024-02-04T07:52:34;102831.31;;;12.46;68.78
62600;BME280;48671;48.922;2.346;2024-02-04T07:54:59;102841.72;;;12.49;68.94
62600;BME280;48671;48.922;2.346;2024-02-04T07:57:26;102859.03;;;12.56;68.84
62600;BME280;48671;48.922;2.346;2024-02-04T07:59:51;102836.56;;;12.41;68.92
62600;BME280;48671;48.922;2.346;2024-02-04T08:02:36;102884.97;;;12.70;68.79
62600;BME280;48671;48.922;2.346;2024-02-04T08:05:31;102878.97;;;12.62;68.95
62600;BME280;48671;48.922;2.346;2024-02-04T08:11:36;102850.50;;;12.39;68.90
62600;BME280;48671;48.922;2.346;2024-02-04T08:14:07;102838.31;;;12.41;68.80
62600;BME280;48671;48.922;2.346;2024-02-04T08:16:38;102859.03;;;12.55;68.79
62600;BME280;48671;48.922;2.346;2024-02-04T08:19:10;102879.84;;;12.62;68.77
62600;BME280;48671;48.922;2.346;2024-02-04T08:21:39;102869.44;;;12.58;68.53
62600;BME280;48671;48.922;2.346;2024-02-04T08:24:04;102878.88;;;12.68;68.59
62600;BME280;48671;48.922;2.346;2024-02-04T08:26:30;102873.66;;;12.70;68.88
62600;BME280;48671;48.922;2.346;2024-02-04T08:28:55;102856.38;;;12.58;68.53
62600;BME280;48671;48.922;2.346;2024-02-04T08:31:27;102880.69;;;12.63;68.89
62600;BME280;48671;48.922;2.346;2024-02-04T08:33:52;102879.69;;;12.72;68.88
62600;BME280;48671;48.922;2.346;2024-02-04T08:36:36;102877.09;;;12.72;68.58
62600;BME280;48671;48.922;2.346;2024-02-04T08:39:01;102865.97;;;12.59;68.56
62600;BME280;48671;48.922;2.346;2024-02-04T08:41:58;102848.59;;;12.56;68.61
62600;BME280;48671;48.922;2.346;2024-02-04T08:47:29;102855.44;;;12.63;68.57
62600;BME280;48671;48.922;2.346;2024-02-04T08:49:54;102837.38;;;12.47;68.78
62600;BME280;48671;48.922;2.346;2024-02-04T08:52:20;102872.75;;;12.71;68.61
62600;BME280;48671;48.922;2.346;2024-02-04T08:54:56;102841.69;;;12.51;68.66
62600;BME280;48671;48.922;2.346;2024-02-04T08:57:21;102863.25;;;12.65;68.69
62600;BME280;48671;48.922;2.346;2024-02-04T08:59:52;102874.44;;;12.75;68.65
62600;BME280;48671;48.922;2.346;2024-02-04T09:02:29;102866.75;;;12.64;68.93
62600;BME280;48671;48.922;2.346;2024-02-04T09:08:29;102866.75;;;12.64;68.27
62600;BME280;48671;48.922;2.346;2024-02-04T09:10:54;102892.72;;;12.76;68.86
62600;BME280;48671;48.922;2.346;2024-02-04T09:13:23;102856.38;;;12.58;68.16
62600;BME280;48671;48.922;2.346;2024-02-04T09:16:22;102852.88;;;12.60;67.81
62600;BME280;48671;48.922;2.346;2024-02-04T09:19:23;102853.63;;;12.70;67.99
62600;BME280;48671;48.922;2.346;2024-02-04T09:21:49;102881.38;;;12.79;67.64
62600;BME280;48671;48.922;2.346;2024-02-04T09:24:20;102884.63;;;12.95;67.65
62600;BME280;48671;48.922;2.346;2024-02-04T09:26:48;102882.00;;;12.95;67.06
62600;BME280;48671;48.922;2.346;2024-02-04T09:29:16;102873.44;;;12.86;67.05
62600;BME280;48671;48.922;2.346;2024-02-04T09:31:59;102892.41;;;12.99;66.93
62600;BME280;48671;48.922;2.346;2024-02-04T09:34:25;102868.16;;;12.89;67.00
62600;BME280;48671;48.922;2.346;2024-02-04T09:37:04;102916.59;;;13.15;67.11
62600;BME280;48671;48.922;2.346;2024-02-04T09:39:29;102870.69;;;12.96;66.67
62600;BME280;48671;48.922;2.346;2024-02-04T09:41:55;102854.31;;;12.83;66.10
62600;BME280;48671;48.922;2.346;2024-02-04T09:44:23;102864.66;;;12.92;66.26
62600;BME280;48671;48.922;2.346;2024-02-04T09:49:48;102869.81;;;12.95;65.68
62600;BME280;48671;48.922;2.346;2024-02-04T09:53:03;102868.97;;;12.93;66.18
62600;BME280;48671;48.922;2.346;2024-02-04T09:55:32;102873.25;;;12.99;65.87
62600;BME280;48671;48.922;2.346;2024-02-04T09:58:23;102842.97;;;12.85;65.59
62600;BME280;48671;48.922;2.346;2024-02-04T10:04:02;102866.19;;;13.05;66.01
62600;BME280;48671;48.922;2.346;2024-02-04T10:06:31;102836.81;;;12.89;65.54
62600;BME280;48671;48.922;2.346;2024-02-04T10:08:56;102873.09;;;13.09;66.58
62600;BME280;48671;48.922;2.346;2024-02-04T10:11:24;102844.59;;;12.91;66.94
62600;BME280;48671;48.922;2.346;2024-02-04T10:13:50;102872.28;;;13.06;66.85
62600;BME280;48671;48.922;2.346;2024-02-04T10:16:22;102891.31;;;13.14;67.53
62600;BME280;48671;48.922;2.346;2024-02-04T10:19:11;102839.38;;;12.91;67.56
62600;BME280;48671;48.922;2.346;2024-02-04T10:21:36;102855.88;;;12.95;67.77
62600;BME280;48671;48.922;2.346;2024-02-04T10:24:08;102836.03;;;12.81;67.56
62600;BME280;48671;48.922;2.346;2024-02-04T10:26:35;102858.50;;;12.95;67.84
62600;BME280;48671;48.922;2.346;2024-02-04T10:29:03;102865.34;;;13.05;67.31
62600;BME280;48671;48.922;2.346;2024-02-04T10:31:29;102865.28;;;13.06;67.30
62600;BME280;48671;48.922;2.346;2024-02-04T10:33:55;102863.50;;;13.10;66.89
62600;BME280;48671;48.922;2.346;2024-02-04T10:36:23;102860.94;;;13.07;66.83
62600;BME280;48671;48.922;2.346;2024-02-04T10:38:50;102900.63;;;13.33;66.88
62600;BME280;48671;48.922;2.346;2024-02-04T10:41:34;102856.41;;;13.18;66.77
62600;BME280;48671;48.922;2.346;2024-02-04T10:46:54;102878.91;;;13.31;66.15
62600;BME280;48671;48.922;2.346;2024-02-04T10:49:35;102868.56;;;13.22;65.86
62600;BME280;48671;48.922;2.346;2024-02-04T10:52:14;102865.16;;;13.16;65.85
62600;BME280;48671;48.922;2.346;2024-02-04T10:54:41;102872.06;;;13.21;65.54
62600;BME280;48671;48.922;2.346;2024-02-04T10:57:17;102871.16;;;13.25;65.56
62600;BME280;48671;48.922;2.346;2024-02-04T10:59:47;102884.03;;;13.38;65.51
62600;BME280;48671;48.922;2.346;2024-02-04T11:02:14;102878.72;;;13.42;65.51
62600;BME280;48671;48.922;2.346;2024-02-04T11:04:42;102894.94;;;13.63;64.56
62600;BME280;48671;48.922;2.346;2024-02-04T11:07:08;102880.06;;;13.66;64.45
62600;BME280;48671;48.922;2.346;2024-02-04T11:09:36;102879.84;;;13.80;63.61
62600;BME280;48671;48.922;2.346;2024-02-04T11:12:05;102881.56;;;13.81;63.20
62600;BME280;48671;48.922;2.346;2024-02-04T11:14:33;102880.72;;;13.79;62.62
62600;BME280;48671;48.922;2.346;2024-02-04T11:17:15;102898.88;;;13.88;62.75
62600;BME280;48671;48.922;2.346;2024-02-04T11:20:10;102901.50;;;13.88;62.68
62600;BME280;48671;48.922;2.346;2024-02-04T11:23:05;102888.56;;;13.79;62.35
62600;BME280;48671;48.922;2.346;2024-02-04T11:25:53;102897.31;;;13.78;62.63
62600;BME280;48671;48.922;2.346;2024-02-04T11:28:21;102887.84;;;13.71;62.73
62600;BME280;48671;48.922;2.346;2024-02-04T11:30:47;102887.16;;;13.59;62.75
62600;BME280;48671;48.922;2.346;2024-02-04T11:33:17;102859.38;;;13.54;63.07
62600;BME280;48671;48.922;2.346;2024-02-04T11:35:43;102892.22;;;13.69;62.88
62600;BME280;48671;48.922;2.346;2024-02-04T11:38:09;102881.91;;;13.59;62.96
62600;BME280;48671;48.922;2.346;2024-02-04T11:40:37;102891.38;;;13.68;63.09
62600;BME280;48671;48.922;2.346;2024-02-04T11:43:13;102880.16;;;13.60;62.63
62600;BME280;48671;48.922;2.346;2024-02-04T11:45:40;102879.19;;;13.67;63.14
62600;BME280;48671;48.922;2.346;2024-02-04T11:48:12;102887.75;;;13.75;62.27
62600;BME280;48671;48.922;2.346;2024-02-04T11:50:38;102875.63;;;13.70;62.65
62600;BME280;48671;48.922;2.346;2024-02-04T11:53:06;102885.13;;;13.75;62.36
62600;BME280;48671;48.922;2.346;2024-02-04T11:55:33;102873.00;;;13.71;62.11
62600;BME280;48671;48.922;2.346;2024-02-04T11:57:59;102856.56;;;13.65;62.27
62600;BME280;48671;48.922;2.346;2024-02-04T12:00:28;102860.81;;;13.70;61.69
62600;BME280;48671;48.922;2.346;2024-02-04T12:03:28;102881.53;;;13.82;61.64
62600;BME280;48671;48.922;2.346;2024-02-04T12:05:53;102875.41;;;13.84;61.58
62600;BME280;48671;48.922;2.346;2024-02-04T12:08:19;102833.97;;;13.59;61.62
62600;BME280;48671;48.922;2.346;2024-02-04T12:10:45;102846.81;;;13.73;61.89
62600;BME280;48671;48.922;2.346;2024-02-04T12:13:12;102858.03;;;13.79;62.17
62600;BME280;48671;48.922;2.346;2024-02-04T12:15:38;102865.88;;;13.81;62.07
62600;BME280;48671;48.922;2.346;2024-02-04T12:18:08;102862.41;;;13.79;61.79
62600;BME280;48671;48.922;2.346;2024-02-04T12:20:33;102839.22;;;13.59;61.91
62600;BME280;48671;48.922;2.346;2024-02-04T12:22:59;102811.53;;;13.46;62.25
62600;BME280;48671;48.922;2.346;2024-02-04T12:25:28;102819.38;;;13.46;61.86
62600;BME280;48671;48.922;2.346;2024-02-04T12:27:55;102841.75;;;13.64;62.16
62600;BME280;48671;48.922;2.346;2024-02-04T12:30:20;102850.31;;;13.73;62.08
62600;BME280;48671;48.922;2.346;2024-02-04T12:32:56;102850.06;;;13.86;61.93
62600;BME280;48671;48.922;2.346;2024-02-04T12:35:21;102837.13;;;13.78;61.81
62600;BME280;48671;48.922;2.346;2024-02-04T12:37:53;102843.13;;;13.83;61.44
62600;BME280;48671;48.922;2.346;2024-02-04T12:40:25;102841.41;;;13.82;62.01
62600;BME280;48671;48.922;2.346;2024-02-04T12:42:55;102805.16;;;13.64;61.75
62600;BME280;48671;48.922;2.346;2024-02-04T12:45:25;102818.03;;;13.73;62.07
62600;BME280;48671;48.922;2.346;2024-02-04T12:47:52;102810.22;;;13.70;61.43
62600;BME280;48671;48.922;2.346;2024-02-04T12:50:19;102823.22;;;13.76;62.04
62600;BME280;48671;48.922;2.346;2024-02-04T12:52:49;102826.56;;;13.84;61.93
62600;BME280;48671;48.922;2.346;2024-02-04T12:55:26;102829.97;;;13.88;61.83
62600;BME280;48671;48.922;2.346;2024-02-04T12:58:06;102823.00;;;13.88;61.77
62600;BME280;48671;48.922;2.346;2024-02-04T13:00:32;102808.25;;;13.84;61.94
62600;BME280;48671;48.922;2.346;2024-02-04T13:02:58;102809.88;;;13.90;61.42
62600;BME280;48671;48.922;2.346;2024-02-04T13:05:24;102814.38;;;13.81;61.41
62600;BME280;48671;48.922;2.346;2024-02-04T13:07:54;102810.91;;;13.81;61.65
62600;BME280;48671;48.922;2.346;2024-02-04T13:10:24;102815.41;;;13.74;61.57
62600;BME280;48671;48.922;2.346;2024-02-04T13:13:02;102807.56;;;13.73;62.27
62600;BME280;48671;48.922;2.346;2024-02-04T13:15:32;102808.50;;;13.70;61.76
62600;BME280;48671;48.922;2.346;2024-02-04T13:17:58;102775.63;;;13.55;62.18
62600;BME280;48671;48.922;2.346;2024-02-04T13:20:24;102815.34;;;13.76;62.20
62600;BME280;48671;48.922;2.346;2024-02-04T13:22:50;102785.88;;;13.66;61.70
62600;BME280;48671;48.922;2.346;2024-02-04T13:25:16;102797.88;;;13.78;61.69